createdAt,value
2022-12-27T00:02:24.555Z,11.30
2022-12-27T00:04:52.784Z,11.30
2022-12-27T00:07:20.036Z,11.29
2022-12-27T00:09:47.708Z,11.31
2022-12-27T00:12:14.826Z,11.30
2022-12-27T00:14:41.769Z,11.30
2022-12-27T00:17:08.927Z,11.30
2022-12-27T00:19:36.355Z,11.29
2022-12-27T00:22:05.333Z,11.28
2022-12-27T00:24:32.388Z,11.28
2022-12-27T00:26:59.360Z,11.25
2022-12-27T00:29:26.407Z,11.24
2022-12-27T00:31:53.517Z,11.26
2022-12-27T00:34:21.632Z,11.23
2022-12-27T00:36:49.546Z,11.22
2022-12-27T00:39:16.612Z,11.21
2022-12-27T00:41:43.624Z,11.20
2022-12-27T00:44:10.631Z,11.21
2022-12-27T00:46:37.775Z,11.20
2022-12-27T00:49:04.784Z,11.20
2022-12-27T00:51:32.178Z,11.21
2022-12-27T00:53:59.383Z,11.20
2022-12-27T00:56:30.244Z,11.19
2022-12-27T00:59:00.650Z,11.20
2022-12-27T01:01:33.435Z,11.22
2022-12-27T01:04:00.883Z,11.20
2022-12-27T01:06:32.282Z,11.18
2022-12-27T01:09:02.051Z,11.18
2022-12-27T01:11:30.469Z,11.16
2022-12-27T01:14:01.039Z,11.14
2022-12-27T01:16:30.256Z,11.12
2022-12-27T01:18:58.855Z,11.12
2022-12-27T01:21:27.296Z,11.12
2022-12-27T01:23:55.259Z,11.12
2022-12-27T01:26:24.232Z,11.10
2022-12-27T01:28:53.005Z,11.08
2022-12-27T01:31:28.233Z,11.08
2022-12-27T01:33:59.004Z,11.09
2022-12-27T01:36:28.977Z,11.06
2022-12-27T01:38:58.347Z,11.06
2022-12-27T01:41:48.156Z,11.08
2022-12-27T01:44:39.659Z,11.06
2022-12-27T01:47:12.633Z,11.06
2022-12-27T01:50:05.037Z,11.05
2022-12-27T01:52:36.877Z,11.04
2022-12-27T01:55:17.868Z,11.05
2022-12-27T01:57:46.396Z,11.02
2022-12-27T02:00:14.126Z,11.00
2022-12-27T02:02:41.675Z,10.96
2022-12-27T02:05:10.886Z,10.93
2022-12-27T02:07:59.485Z,10.91
2022-12-27T02:10:29.311Z,10.90
2022-12-27T02:12:57.678Z,10.88
2022-12-27T02:15:24.698Z,10.86
2022-12-27T02:17:51.712Z,10.85
2022-12-27T02:20:23.202Z,10.84
2022-12-27T02:23:33.473Z,10.83
2022-12-27T02:26:27.461Z,10.79
2022-12-27T02:29:40.802Z,10.77
2022-12-27T02:32:41.334Z,10.74
2022-12-27T02:35:30.816Z,10.72
2022-12-27T02:38:06.444Z,10.68
2022-12-27T02:40:54.273Z,10.66
2022-12-27T02:43:40.261Z,10.64
2022-12-27T02:46:43.135Z,10.64
2022-12-27T02:49:45.363Z,10.62
2022-12-27T02:53:00.119Z,10.58
2022-12-27T02:56:19.374Z,10.54
2022-12-27T02:58:51.809Z,10.48
2022-12-27T03:02:09.090Z,10.45
2022-12-27T03:05:07.257Z,10.39
2022-12-27T03:08:02.062Z,10.35
2022-12-27T03:11:16.184Z,10.29
2022-12-27T03:14:51.562Z,10.29
2022-12-27T03:17:37.261Z,10.25
2022-12-27T03:20:28.104Z,10.23
2022-12-27T03:23:15.590Z,10.18
2022-12-27T03:25:44.452Z,10.16
2022-12-27T03:28:41.880Z,10.13
2022-12-27T03:31:45.021Z,10.12
2022-12-27T03:34:32.536Z,10.10
2022-12-27T03:37:24.874Z,10.08
2022-12-27T03:40:05.891Z,10.05
2022-12-27T03:42:59.849Z,10.07
2022-12-27T03:45:52.604Z,10.05
2022-12-27T03:48:24.812Z,10.04
2022-12-27T03:51:05.302Z,10.05
2022-12-27T03:53:42.877Z,10.05
2022-12-27T03:56:11.489Z,10.04
2022-12-27T03:58:38.435Z,10.03
2022-12-27T04:01:05.727Z,10.04
2022-12-27T04:03:33.779Z,10.04
2022-12-27T04:06:01.221Z,10.05
2022-12-27T04:08:46.857Z,10.05
2022-12-27T04:11:34.168Z,10.04
2022-12-27T04:14:19.814Z,10.04
2022-12-27T04:17:05.182Z,10.03
2022-12-27T04:19:50.471Z,10.05
2022-12-27T04:22:35.864Z,10.05
2022-12-27T04:25:21.316Z,10.04
2022-12-27T04:28:06.939Z,10.06
2022-12-27T04:30:52.940Z,10.06
2022-12-27T04:33:38.770Z,10.06
2022-12-27T04:36:06.756Z,10.05
2022-12-27T04:38:33.783Z,10.07
2022-12-27T04:41:19.362Z,10.07
2022-12-27T04:44:05.247Z,10.07
2022-12-27T04:46:50.758Z,10.07
2022-12-27T04:49:43.233Z,10.07
2022-12-27T04:52:38.289Z,10.07
2022-12-27T04:55:12.062Z,10.05
2022-12-27T04:57:39.058Z,10.03
2022-12-27T05:00:25.683Z,10.03
2022-12-27T05:02:53.093Z,10.02
2022-12-27T05:05:21.244Z,10.00
2022-12-27T05:08:07.247Z,10.00
2022-12-27T05:10:53.197Z,10.00
2022-12-27T05:13:38.646Z,9.99
2022-12-27T05:16:06.475Z,10.01
2022-12-27T05:18:33.495Z,10.01
2022-12-27T05:21:07.890Z,10.02
2022-12-27T05:23:53.893Z,10.00
2022-12-27T05:26:23.472Z,10.03
2022-12-27T05:28:53.664Z,10.04
2022-12-27T05:31:22.023Z,10.05
2022-12-27T05:33:50.579Z,10.05
2022-12-27T05:36:18.451Z,10.05
2022-12-27T05:38:46.444Z,10.05
2022-12-27T05:41:14.413Z,10.05
2022-12-27T05:43:41.473Z,10.05
2022-12-27T05:46:09.623Z,10.06
2022-12-27T05:48:37.176Z,10.05
2022-12-27T05:51:07.026Z,10.06
2022-12-27T05:53:34.693Z,10.05
2022-12-27T05:56:02.191Z,10.09
2022-12-27T05:58:29.850Z,10.07
2022-12-27T06:00:57.863Z,10.08
2022-12-27T06:03:25.227Z,10.07
2022-12-27T06:05:53.472Z,10.09
2022-12-27T06:08:20.542Z,10.08
2022-12-27T06:10:48.094Z,10.07
2022-12-27T06:13:15.309Z,10.05
2022-12-27T06:15:42.238Z,10.02
2022-12-27T06:18:09.283Z,10.00
2022-12-27T06:20:36.269Z,10.00
2022-12-27T06:23:03.326Z,9.99
2022-12-27T06:25:30.246Z,9.97
2022-12-27T06:27:57.248Z,9.98
2022-12-27T06:30:24.283Z,9.97
2022-12-27T06:32:51.257Z,9.95
2022-12-27T06:35:18.468Z,9.95
2022-12-27T06:37:45.574Z,9.93
2022-12-27T06:40:13.097Z,9.94
2022-12-27T06:42:40.214Z,9.92
2022-12-27T06:45:09.434Z,9.90
2022-12-27T06:47:36.799Z,9.88
2022-12-27T06:50:04.600Z,9.87
2022-12-27T06:52:31.855Z,9.82
2022-12-27T06:54:59.454Z,9.79
2022-12-27T06:57:26.627Z,9.74
2022-12-27T06:59:54.244Z,9.74
2022-12-27T07:02:21.914Z,9.70
2022-12-27T07:04:49.055Z,9.68
2022-12-27T07:07:16.180Z,9.65
2022-12-27T07:09:43.277Z,9.63
2022-12-27T07:12:10.435Z,9.60
2022-12-27T07:14:37.406Z,9.59
2022-12-27T07:17:04.477Z,9.60
2022-12-27T07:19:31.548Z,9.58
2022-12-27T07:21:58.924Z,9.54
2022-12-27T07:24:25.931Z,9.53
2022-12-27T07:26:52.850Z,9.54
2022-12-27T07:29:20.037Z,9.54
2022-12-27T07:31:47.168Z,9.56
2022-12-27T07:34:14.355Z,9.57
2022-12-27T07:36:41.942Z,9.57
2022-12-27T07:39:10.131Z,9.59
2022-12-27T07:41:37.667Z,9.61
2022-12-27T07:44:05.118Z,9.62
2022-12-27T07:46:33.380Z,9.63
2022-12-27T07:49:00.682Z,9.64
2022-12-27T07:51:29.186Z,9.65
2022-12-27T07:53:56.982Z,9.68
2022-12-27T07:56:27.316Z,9.69
2022-12-27T07:59:00.664Z,9.72
2022-12-27T08:01:51.215Z,9.73
2022-12-27T08:04:18.221Z,9.73
2022-12-27T08:06:45.998Z,9.75
2022-12-27T08:09:16.980Z,9.75
2022-12-27T08:11:43.951Z,9.73
2022-12-27T08:14:11.080Z,9.73
2022-12-27T08:16:38.063Z,9.75
2022-12-27T08:19:08.588Z,9.79
2022-12-27T08:21:35.777Z,9.81
2022-12-27T08:24:02.823Z,9.85
2022-12-27T08:26:29.884Z,9.88
2022-12-27T08:28:56.992Z,9.92
2022-12-27T08:31:23.983Z,9.94
2022-12-27T08:33:58.130Z,9.96
2022-12-27T08:36:54.162Z,9.98
2022-12-27T08:39:12.793Z,10.01
2022-12-27T08:41:39.718Z,10.01
2022-12-27T08:44:07.324Z,10.03
2022-12-27T08:46:34.568Z,10.06
2022-12-27T08:49:01.855Z,10.07
2022-12-27T08:51:36.025Z,10.11
2022-12-27T08:54:07.912Z,10.14
2022-12-27T08:56:34.921Z,10.15
2022-12-27T08:59:02.117Z,10.17
2022-12-27T09:01:29.216Z,10.19
2022-12-27T09:03:56.305Z,10.18
2022-12-27T09:06:24.761Z,10.22
2022-12-27T09:08:52.966Z,10.30
2022-12-27T09:11:28.181Z,10.25
2022-12-27T09:13:55.826Z,10.30
2022-12-27T09:16:27.606Z,10.33
2022-12-27T09:18:57.351Z,10.35
2022-12-27T09:21:28.734Z,10.36
2022-12-27T09:23:56.593Z,10.36
2022-12-27T09:26:27.451Z,10.41
2022-12-27T09:28:55.332Z,10.38
2022-12-27T09:31:23.743Z,10.39
2022-12-27T09:33:50.924Z,10.38
2022-12-27T09:36:22.822Z,10.38
2022-12-27T09:38:52.782Z,10.39
2022-12-27T09:44:47.719Z,10.49
2022-12-27T09:47:27.275Z,10.50
2022-12-27T09:50:07.491Z,10.49
2022-12-27T09:52:44.184Z,10.56
2022-12-27T09:55:37.349Z,10.60
2022-12-27T09:58:27.230Z,10.58
2022-12-27T10:00:54.240Z,10.58
2022-12-27T10:03:26.660Z,10.57
2022-12-27T10:06:27.532Z,10.60
2022-12-27T10:09:19.497Z,10.66
2022-12-27T10:12:01.739Z,10.68
2022-12-27T10:15:13.735Z,10.81
2022-12-27T10:18:09.029Z,10.83
2022-12-27T10:21:18.273Z,10.89
2022-12-27T10:23:54.675Z,10.89
2022-12-27T10:26:22.284Z,10.93
2022-12-27T10:29:03.937Z,10.98
2022-12-27T10:31:32.218Z,11.01
2022-12-27T10:34:00.359Z,11.04
2022-12-27T10:36:30.917Z,11.12
2022-12-27T10:38:58.155Z,11.13
2022-12-27T10:41:53.303Z,11.18
2022-12-27T10:44:23.620Z,11.20
2022-12-27T10:46:54.126Z,11.25
2022-12-27T10:49:30.353Z,11.28
2022-12-27T10:52:10.550Z,11.32
2022-12-27T10:54:58.722Z,11.32
2022-12-27T10:57:33.458Z,11.37
2022-12-27T11:00:20.444Z,11.37
2022-12-27T11:02:57.481Z,11.39
2022-12-27T11:05:31.154Z,11.39
2022-12-27T11:07:58.447Z,11.44
2022-12-27T11:10:31.299Z,11.52
2022-12-27T11:13:19.023Z,11.59
2022-12-27T11:15:58.690Z,11.57
2022-12-27T11:18:26.654Z,11.60
2022-12-27T11:20:58.208Z,11.60
2022-12-27T11:23:40.048Z,11.65
2022-12-27T11:26:07.776Z,11.74
2022-12-27T11:29:00.686Z,11.75
2022-12-27T11:31:42.048Z,11.75
2022-12-27T11:34:21.340Z,11.84
2022-12-27T11:36:51.697Z,11.85
2022-12-27T11:39:42.267Z,11.85
2022-12-27T11:42:38.461Z,11.85
2022-12-27T11:45:18.056Z,11.89
2022-12-27T11:48:04.089Z,11.97
2022-12-27T11:50:47.282Z,12.03
2022-12-27T11:53:23.065Z,12.08
2022-12-27T11:56:04.899Z,12.03
2022-12-27T11:59:22.376Z,12.09
2022-12-27T12:02:45.936Z,12.20
2022-12-27T12:06:13.038Z,12.30
2022-12-27T12:09:12.338Z,12.40
2022-12-27T12:15:45.602Z,12.51
2022-12-27T12:59:51.302Z,13.18
2022-12-27T13:02:58.722Z,13.23
2022-12-27T13:05:58.032Z,13.26
2022-12-27T13:09:02.721Z,13.29
2022-12-27T13:12:03.486Z,13.30
2022-12-27T13:14:54.801Z,13.33
2022-12-27T13:17:28.553Z,13.35
2022-12-27T13:20:41.538Z,13.37
2022-12-27T13:23:42.113Z,13.37
2022-12-27T13:26:25.132Z,13.40
2022-12-27T13:29:13.788Z,13.45
2022-12-27T13:32:18.094Z,13.47
2022-12-27T13:34:52.670Z,13.41
2022-12-27T13:37:26.606Z,13.42
2022-12-27T13:40:14.759Z,13.42
2022-12-27T13:43:23.231Z,13.44
2022-12-27T13:46:20.993Z,13.47
2022-12-27T13:49:17.269Z,13.44
2022-12-27T13:51:47.595Z,13.40
2022-12-27T13:54:48.371Z,13.40
2022-12-27T13:57:58.799Z,13.35
2022-12-27T14:00:36.468Z,13.32
2022-12-27T14:03:50.144Z,13.32
2022-12-27T14:06:42.001Z,13.31
2022-12-27T14:09:58.415Z,13.31
2022-12-27T14:12:49.272Z,13.29
2022-12-27T14:15:22.247Z,13.30
2022-12-27T14:18:31.189Z,13.29
2022-12-27T14:21:13.442Z,13.27
2022-12-27T14:24:02.069Z,13.23
2022-12-27T14:27:07.926Z,13.21
2022-12-27T14:29:59.758Z,13.17
2022-12-27T14:33:04.171Z,13.14
2022-12-27T14:35:49.757Z,13.08
2022-12-27T14:38:39.826Z,13.04
2022-12-27T14:41:59.496Z,13.00
2022-12-27T14:45:17.962Z,12.92
2022-12-27T14:48:22.295Z,12.89
2022-12-27T14:50:55.113Z,12.84
2022-12-27T14:54:10.106Z,12.81
2022-12-27T15:01:04.432Z,12.70
2022-12-27T15:03:58.398Z,12.67
2022-12-27T15:06:43.301Z,12.65
2022-12-27T15:09:17.860Z,12.62
2022-12-27T15:12:12.506Z,12.58
2022-12-27T15:18:30.733Z,12.49
2022-12-27T15:21:41.454Z,12.41
2022-12-27T15:24:35.558Z,12.35
2022-12-27T15:27:20.305Z,12.33
2022-12-27T15:30:20.586Z,12.28
2022-12-27T15:33:02.645Z,12.20
2022-12-27T15:35:32.643Z,12.16
2022-12-27T15:38:12.433Z,12.14
2022-12-27T15:40:56.389Z,12.12
2022-12-27T15:44:07.578Z,12.09
2022-12-27T15:46:37.175Z,12.03
2022-12-27T15:49:18.436Z,12.00
2022-12-27T15:51:55.575Z,11.98
2022-12-27T15:54:54.011Z,11.93
2022-12-27T15:57:52.700Z,11.89
2022-12-27T16:00:22.725Z,11.86
2022-12-27T16:02:51.200Z,11.82
2022-12-27T16:05:24.255Z,11.81
2022-12-27T16:08:26.613Z,11.77
2022-12-27T16:10:55.480Z,11.74
2022-12-27T16:13:39.391Z,11.74
2022-12-27T16:16:29.658Z,11.66
2022-12-27T16:19:22.401Z,11.61
2022-12-27T16:21:50.046Z,11.56
2022-12-27T16:24:22.612Z,11.49
2022-12-27T16:27:05.552Z,11.43
2022-12-27T16:29:43.788Z,11.40
2022-12-27T16:32:22.484Z,11.37
2022-12-27T16:34:55.367Z,11.34
2022-12-27T16:37:30.897Z,11.32
2022-12-27T16:40:41.746Z,11.27
2022-12-27T16:43:08.639Z,11.25
2022-12-27T16:45:38.890Z,11.26
2022-12-27T16:48:29.507Z,11.25
2022-12-27T16:51:29.849Z,11.24
2022-12-27T16:54:06.736Z,11.23
2022-12-27T16:56:37.492Z,11.25
2022-12-27T17:00:01.513Z,11.25
2022-12-27T17:02:51.228Z,11.20
2022-12-27T17:05:35.586Z,11.18
2022-12-27T17:08:28.862Z,11.14
2022-12-27T17:11:25.103Z,11.16
2022-12-27T17:14:16.323Z,11.14
2022-12-27T17:17:04.271Z,11.07
2022-12-27T17:19:59.173Z,11.05
2022-12-27T17:22:32.306Z,10.97
2022-12-27T17:25:02.513Z,10.95
2022-12-27T17:27:48.245Z,10.88
2022-12-27T17:30:22.688Z,10.83
2022-12-27T17:33:18.589Z,10.77
2022-12-27T17:36:25.918Z,10.73
2022-12-27T17:38:58.770Z,10.68
2022-12-27T17:42:16.993Z,10.70
2022-12-27T17:45:02.233Z,10.69
2022-12-27T17:48:07.190Z,10.65
2022-12-27T17:50:37.114Z,10.60
2022-12-27T17:53:37.728Z,10.58
2022-12-27T17:56:29.163Z,10.58
2022-12-27T17:59:27.318Z,10.60
2022-12-27T18:02:05.979Z,10.62
2022-12-27T18:04:40.775Z,10.60
2022-12-27T18:07:13.053Z,10.56
2022-12-27T18:09:51.977Z,10.55
2022-12-27T18:12:22.281Z,10.46
2022-12-27T18:15:18.684Z,10.49
2022-12-27T18:17:52.564Z,10.48
2022-12-27T18:20:28.426Z,10.46
2022-12-27T18:23:01.108Z,10.46
2022-12-27T18:25:33.453Z,10.48
2022-12-27T18:28:02.951Z,10.47
2022-12-27T18:30:45.773Z,10.42
2022-12-27T18:33:16.136Z,10.36
2022-12-27T18:35:50.268Z,10.35
2022-12-27T18:38:28.296Z,10.36
2022-12-27T18:41:20.190Z,10.34
2022-12-27T18:43:52.999Z,10.29
2022-12-27T18:46:34.580Z,10.21
2022-12-27T18:49:02.470Z,10.24
2022-12-27T18:51:36.322Z,10.22
2022-12-27T18:54:29.966Z,10.22
2022-12-27T18:57:00.821Z,10.17
2022-12-27T18:59:31.827Z,10.15
2022-12-27T19:02:02.879Z,10.19
2022-12-27T19:04:33.805Z,10.16
2022-12-27T19:07:00.683Z,10.11
2022-12-27T19:09:33.269Z,10.14
2022-12-27T19:12:22.025Z,10.21
2022-12-27T19:14:49.893Z,10.15
2022-12-27T19:17:22.852Z,10.16
2022-12-27T19:19:54.722Z,10.21
2022-12-27T19:22:34.324Z,10.28
2022-12-27T19:25:06.147Z,10.24
2022-12-27T19:27:33.419Z,10.21
2022-12-27T19:30:00.709Z,10.19
2022-12-27T19:32:35.618Z,10.19
2022-12-27T19:35:04.680Z,10.21
2022-12-27T19:37:33.692Z,10.27
2022-12-27T19:40:00.885Z,10.23
2022-12-27T19:42:36.067Z,10.15
2022-12-27T19:45:03.382Z,10.16
2022-12-27T19:47:32.355Z,10.14
2022-12-27T19:49:59.564Z,10.13
2022-12-27T19:52:27.556Z,10.16
2022-12-27T19:55:05.449Z,10.18
2022-12-27T19:57:32.322Z,10.18
2022-12-27T19:59:59.898Z,10.20
2022-12-27T20:02:27.847Z,10.16
2022-12-27T20:04:55.733Z,10.16
2022-12-27T20:07:25.031Z,10.17
2022-12-27T20:09:52.013Z,10.16
2022-12-27T20:12:18.934Z,10.19
2022-12-27T20:14:47.384Z,10.24
2022-12-27T20:17:14.866Z,10.31
2022-12-27T20:19:42.084Z,10.26
2022-12-27T20:22:09.145Z,10.23
2022-12-27T20:24:37.042Z,10.19
2022-12-27T20:27:05.183Z,10.21
2022-12-27T20:29:32.268Z,10.18
2022-12-27T20:31:59.446Z,10.18
2022-12-27T20:34:26.826Z,10.18
2022-12-27T20:36:55.425Z,10.19
2022-12-27T20:39:22.458Z,10.21
2022-12-27T20:41:49.433Z,10.21
2022-12-27T20:44:16.516Z,10.22
2022-12-27T20:46:43.514Z,10.22
2022-12-27T20:49:10.462Z,10.26
2022-12-27T20:51:37.666Z,10.28
2022-12-27T20:54:04.931Z,10.31
2022-12-27T20:56:32.245Z,10.33
2022-12-27T20:58:59.329Z,10.38
2022-12-27T21:01:27.093Z,10.35
2022-12-27T21:03:56.163Z,10.36
2022-12-27T21:06:27.124Z,10.35
2022-12-27T21:08:57.633Z,10.35
2022-12-27T21:11:31.217Z,10.32
2022-12-27T21:14:03.160Z,10.28
2022-12-27T21:16:34.004Z,10.26
2022-12-27T21:19:05.113Z,10.24
2022-12-27T21:21:35.926Z,10.18
2022-12-27T21:24:04.275Z,10.18
2022-12-27T21:26:37.557Z,10.17
2022-12-27T21:29:07.887Z,10.13
2022-12-27T21:31:36.278Z,10.13
2022-12-27T21:34:04.927Z,10.12
2022-12-27T21:36:34.061Z,10.14
2022-12-27T21:39:02.102Z,10.11
2022-12-27T21:41:33.331Z,10.11
2022-12-27T21:44:00.703Z,10.10
2022-12-27T21:46:38.456Z,10.06
2022-12-27T21:49:09.160Z,10.04
2022-12-27T21:51:38.312Z,10.03
2022-12-27T21:54:05.741Z,10.03
2022-12-27T21:56:33.126Z,10.02
2022-12-27T21:59:01.977Z,9.98
2022-12-27T22:01:50.476Z,9.99
2022-12-27T22:04:21.665Z,9.98
2022-12-27T22:07:04.683Z,9.96
2022-12-27T22:09:31.810Z,9.91
2022-12-27T22:11:59.072Z,9.89
2022-12-27T22:14:27.627Z,9.82
2022-12-27T22:16:56.589Z,9.86
2022-12-27T22:19:23.540Z,9.83
2022-12-27T22:21:50.571Z,9.87
2022-12-27T22:24:19.876Z,9.84
2022-12-27T22:26:48.653Z,9.74
2022-12-27T22:29:15.995Z,9.76
2022-12-27T22:31:43.011Z,9.75
2022-12-27T22:34:10.368Z,9.77
2022-12-27T22:36:37.794Z,9.75
2022-12-27T22:39:05.032Z,9.75
2022-12-27T22:41:35.622Z,9.72
2022-12-27T22:44:05.289Z,9.67
2022-12-27T22:46:58.582Z,9.67
2022-12-27T22:49:19.904Z,9.60
2022-12-27T22:51:46.795Z,9.58
2022-12-27T22:54:13.763Z,9.55
2022-12-27T22:56:42.823Z,9.54
2022-12-27T22:59:16.547Z,9.48
2022-12-27T23:01:45.941Z,9.47
2022-12-27T23:04:14.868Z,9.45
2022-12-27T23:06:42.434Z,9.44
2022-12-27T23:09:10.475Z,9.47
2022-12-27T23:11:41.126Z,9.49
2022-12-27T23:14:16.428Z,9.51
2022-12-27T23:16:47.481Z,9.52
2022-12-27T23:19:19.549Z,9.56
2022-12-27T23:21:48.019Z,9.54
2022-12-27T23:24:15.430Z,9.58
2022-12-27T23:26:42.547Z,9.54
2022-12-27T23:29:12.880Z,9.56
2022-12-27T23:31:54.849Z,9.57
2022-12-27T23:34:28.255Z,9.54
2022-12-27T23:37:01.238Z,9.50
2022-12-27T23:39:29.106Z,9.48
2022-12-27T23:41:56.079Z,9.46
2022-12-27T23:44:33.979Z,9.44
2022-12-27T23:47:04.478Z,9.44
2022-12-27T23:49:31.603Z,9.45
2022-12-27T23:51:58.631Z,9.40
2022-12-27T23:54:25.690Z,9.36
2022-12-27T23:56:52.706Z,9.35
2022-12-27T23:59:19.944Z,9.35
